Time;durP1;ratioP1;P1;durP2;ratioP2;P2;SDS_P1;SDS_P2;PMS_P1;PMS_P2;Temp;Humidity;BMP_temperature;BMP_pressure;BME280_temperature;BME280_humidity;BME280_pressure;Samples;Min_cycle;Max_cycle;Signal;HPM_P1;HPM_P2
2022/09/20 00:00:28;;;;;;;1.77;1.15;;;;;;;;;;5008011;28;20068;-58
2022/09/20 00:02:53;;;;;;;1.02;0.88;;;;;;;;;;5007065;28;20117;-58
2022/09/20 00:05:19;;;;;;;6.28;0.90;;;;;;;;;;5008285;28;20104;-58
2022/09/20 00:07:45;;;;;;;4.68;0.82;;;;;;;;;;5011383;28;20034;-58
2022/09/20 00:10:10;;;;;;;1.17;0.75;;;;;;;;;;5008422;28;20014;-58
2022/09/20 00:12:36;;;;;;;1.15;0.73;;;;;;;;;;5025293;28;20033;-58
2022/09/20 00:15:03;;;;;;;0.73;0.60;;;;;;;;;;5027585;28;20022;-58
2022/09/20 00:17:29;;;;;;;5.78;0.95;;;;;;;;;;5008044;28;20367;-59
2022/09/20 00:19:54;;;;;;;3.55;0.80;;;;;;;;;;5005871;28;20087;-58
2022/09/20 00:22:20;;;;;;;0.80;0.60;;;;;;;;;;5006785;28;20044;-57
2022/09/20 00:24:46;;;;;;;4.88;0.88;;;;;;;;;;5008378;28;20041;-58
2022/09/20 00:27:12;;;;;;;1.65;0.80;;;;;;;;;;5024215;28;20045;-58
2022/09/20 00:29:37;;;;;;;2.28;0.85;;;;;;;;;;5025344;28;20049;-59
2022/09/20 00:35:12;;;;;;;1.48;0.70;;;;;;;;;;4963198;28;20042;-59
2022/09/20 00:37:42;;;;;;;2.50;0.75;;;;;;;;;;4967402;28;20050;-59
2022/09/20 00:40:19;;;;;;;1.35;0.60;;;;;;;;;;4971322;28;20146;-58
2022/09/20 00:42:45;;;;;;;0.90;0.75;;;;;;;;;;4968204;28;20046;-58
2022/09/20 00:45:23;;;;;;;4.63;1.60;;;;;;;;;;4968951;28;20113;-59
2022/09/20 00:47:55;;;;;;;0.70;0.70;;;;;;;;;;4953116;28;20395;-59
2022/09/20 00:50:39;;;;;;;2.22;0.60;;;;;;;;;;4968243;28;20043;-59
2022/09/20 00:53:26;;;;;;;1.67;0.82;;;;;;;;;;4968158;28;20636;-59
2022/09/20 00:55:59;;;;;;;0.70;0.60;;;;;;;;;;4971044;28;20046;-58
2022/09/20 00:58:27;;;;;;;5.00;0.90;;;;;;;;;;4968269;28;20030;-58
2022/09/20 01:00:54;;;;;;;4.35;0.70;;;;;;;;;;4953743;28;20081;-58
2022/09/20 01:03:21;;;;;;;2.40;0.68;;;;;;;;;;4970929;28;20039;-57
2022/09/20 01:05:49;;;;;;;1.25;0.82;;;;;;;;;;4966956;28;20121;-58
2022/09/20 01:08:16;;;;;;;0.85;0.60;;;;;;;;;;4967762;28;20027;-58
2022/09/20 01:10:42;;;;;;;0.50;0.50;;;;;;;;;;4970729;28;20451;-58
2022/09/20 01:13:08;;;;;;;2.85;0.55;;;;;;;;;;4970755;28;20105;-58
2022/09/20 01:15:36;;;;;;;1.95;0.70;;;;;;;;;;4969749;28;20482;-59
2022/09/20 01:18:02;;;;;;;2.35;0.73;;;;;;;;;;4969612;28;20050;-59
2022/09/20 01:20:35;;;;;;;0.75;0.73;;;;;;;;;;4969009;28;20499;-59
2022/09/20 01:23:18;;;;;;;0.73;0.57;;;;;;;;;;4967366;28;20049;-58
2022/09/20 01:26:18;;;;;;;9.23;0.60;;;;;;;;;;4969134;28;20117;-59
2022/09/20 01:28:46;;;;;;;0.40;0.40;;;;;;;;;;4968391;28;20042;-58
2022/09/20 01:31:28;;;;;;;1.75;1.00;;;;;;;;;;4968239;28;20038;-58
2022/09/20 01:34:17;;;;;;;1.85;0.75;;;;;;;;;;4966833;28;20043;-59
2022/09/20 01:37:07;;;;;;;3.35;1.17;;;;;;;;;;4968169;28;20102;-58
2022/09/20 01:39:33;;;;;;;0.60;0.60;;;;;;;;;;4968164;28;20093;-58
2022/09/20 01:42:06;;;;;;;1.38;0.73;;;;;;;;;;4962599;28;20030;-58
2022/09/20 01:44:53;;;;;;;0.80;0.75;;;;;;;;;;4968954;28;20611;-58
2022/09/20 01:47:54;;;;;;;3.45;0.73;;;;;;;;;;4964198;28;20031;-59
2022/09/20 01:50:54;;;;;;;2.15;0.80;;;;;;;;;;4970238;28;20042;-59
2022/09/20 01:53:31;;;;;;;1.85;0.65;;;;;;;;;;4872266;29;20056;-58
2022/09/20 01:55:59;;;;;;;1.50;0.60;;;;;;;;;;4873251;29;20162;-58
2022/09/20 01:59:08;;;;;;;1.02;0.90;;;;;;;;;;4870507;29;20118;-59
2022/09/20 02:01:47;;;;;;;1.30;0.75;;;;;;;;;;4800903;29;20074;-59
2022/09/20 02:04:50;;;;;;;0.70;0.52;;;;;;;;;;4800228;29;20502;-58
2022/09/20 02:07:39;;;;;;;1.98;0.85;;;;;;;;;;4797537;29;20496;-58
2022/09/20 02:10:32;;;;;;;1.55;0.68;;;;;;;;;;4800219;29;20043;-58
2022/09/20 02:13:02;;;;;;;1.58;0.80;;;;;;;;;;4793081;29;20080;-59
2022/09/20 02:15:36;;;;;;;4.10;0.90;;;;;;;;;;4798106;29;20031;-58
2022/09/20 02:18:51;;;;;;;2.22;0.88;;;;;;;;;;4798922;29;20456;-58
2022/09/20 02:21:32;;;;;;;1.42;0.90;;;;;;;;;;4787250;29;20108;-59
2022/09/20 02:24:18;;;;;;;1.60;0.87;;;;;;;;;;4786315;29;20139;-59
2022/09/20 02:27:11;;;;;;;2.67;0.90;;;;;;;;;;4788303;29;20054;-58
2022/09/20 02:30:07;;;;;;;2.95;0.75;;;;;;;;;;4788019;29;20510;-58
2022/09/20 02:32:51;;;;;;;3.72;0.95;;;;;;;;;;4843609;29;20176;-58
2022/09/20 02:35:37;;;;;;;0.73;0.65;;;;;;;;;;4841665;29;20467;-58
2022/09/20 02:38:21;;;;;;;2.15;0.65;;;;;;;;;;4860696;29;20436;-58
2022/09/20 02:41:16;;;;;;;3.88;1.27;;;;;;;;;;4913921;29;20032;-58
2022/09/20 02:44:06;;;;;;;1.50;0.70;;;;;;;;;;4920428;29;20520;-58
2022/09/20 02:46:54;;;;;;;1.67;0.95;;;;;;;;;;4915231;29;20032;-59
2022/09/20 02:49:56;;;;;;;4.68;0.90;;;;;;;;;;4919478;29;20484;-58
2022/09/20 02:52:43;;;;;;;2.57;0.67;;;;;;;;;;4917285;29;20662;-58
2022/09/20 02:55:20;;;;;;;1.48;0.93;;;;;;;;;;4923930;29;20040;-59
2022/09/20 02:58:05;;;;;;;1.98;0.77;;;;;;;;;;4962963;28;20039;-59
2022/09/20 03:01:11;;;;;;;1.35;0.70;;;;;;;;;;4971074;28;20145;-59
2022/09/20 03:04:04;;;;;;;2.60;0.90;;;;;;;;;;4968971;28;20077;-59
2022/09/20 03:06:48;;;;;;;1.27;0.93;;;;;;;;;;4971035;28;20092;-59
2022/09/20 03:09:41;;;;;;;3.33;0.90;;;;;;;;;;4971954;28;20027;-58
2022/09/20 03:12:19;;;;;;;4.97;0.80;;;;;;;;;;4970837;28;20089;-59
2022/09/20 03:15:09;;;;;;;3.33;0.90;;;;;;;;;;4969096;28;20081;-58
2022/09/20 03:17:57;;;;;;;2.10;1.00;;;;;;;;;;4970826;28;20509;-59
2022/09/20 03:20:55;;;;;;;4.60;0.90;;;;;;;;;;4971215;28;20030;-58
2022/09/20 03:23:58;;;;;;;1.58;0.90;;;;;;;;;;4970864;28;20035;-58
2022/09/20 03:26:58;;;;;;;4.28;0.82;;;;;;;;;;4965920;28;20050;-59
2022/09/20 03:29:46;;;;;;;2.42;0.90;;;;;;;;;;4968485;28;20483;-58
2022/09/20 03:32:30;;;;;;;4.32;1.15;;;;;;;;;;4970474;28;20049;-58
2022/09/20 03:35:19;;;;;;;1.30;0.70;;;;;;;;;;4970680;28;20545;-59
2022/09/20 03:38:08;;;;;;;0.77;0.77;;;;;;;;;;4970190;28;20082;-59
2022/09/20 03:40:55;;;;;;;1.52;0.90;;;;;;;;;;4969779;28;20062;-59
2022/09/20 03:43:20;;;;;;;2.53;0.80;;;;;;;;;;4969081;28;20039;-56
2022/09/20 03:46:03;;;;;;;1.75;0.90;;;;;;;;;;4968309;28;20058;-59
2022/09/20 03:48:58;;;;;;;2.53;0.90;;;;;;;;;;4968771;28;20506;-58
2022/09/20 03:51:42;;;;;;;2.47;1.00;;;;;;;;;;4969468;28;20621;-58
2022/09/20 03:54:26;;;;;;;1.00;0.82;;;;;;;;;;4968809;28;20199;-59
2022/09/20 03:57:27;;;;;;;1.95;0.77;;;;;;;;;;4968264;28;20049;-59
2022/09/20 04:00:23;;;;;;;1.77;1.15;;;;;;;;;;4966327;28;20122;-59
2022/09/20 04:03:10;;;;;;;3.28;0.90;;;;;;;;;;4969705;28;20030;-58
2022/09/20 04:06:04;;;;;;;7.30;0.98;;;;;;;;;;4970746;28;20105;-59
2022/09/20 04:08:51;;;;;;;1.75;0.95;;;;;;;;;;4967246;28;20027;-58
2022/09/20 04:11:54;;;;;;;2.10;0.98;;;;;;;;;;4971396;28;20031;-59
2022/09/20 04:14:38;;;;;;;;;;;;;;;;;;4967272;28;20042;-58
2022/09/20 04:17:19;;;;;;;3.58;1.00;;;;;;;;;;4971029;28;20313;-59
2022/09/20 04:20:01;;;;;;;0.98;0.75;;;;;;;;;;4970648;28;20039;-59
2022/09/20 04:22:28;;;;;;;2.80;0.98;;;;;;;;;;4971396;28;20034;-59
2022/09/20 04:24:59;;;;;;;2.30;1.05;;;;;;;;;;4971611;28;20030;-58
2022/09/20 04:27:40;;;;;;;2.17;0.80;;;;;;;;;;4969372;28;20637;-59
2022/09/20 04:30:17;;;;;;;3.47;1.10;;;;;;;;;;4966309;28;20042;-59
2022/09/20 04:32:55;;;;;;;1.08;0.80;;;;;;;;;;4970144;28;20518;-58
2022/09/20 04:38:20;;;;;;;1.55;0.80;;;;;;;;;;4970734;28;20038;-58
2022/09/20 04:41:33;;;;;;;1.75;1.08;;;;;;;;;;4968051;28;20034;-58
2022/09/20 04:44:35;;;;;;;2.92;1.00;;;;;;;;;;4959828;28;20047;-59
2022/09/20 04:47:42;;;;;;;4.20;0.90;;;;;;;;;;4968618;28;20065;-59
2022/09/20 04:50:58;;;;;;;1.83;1.00;;;;;;;;;;4969372;28;20467;-58
2022/09/20 04:53:45;;;;;;;2.80;0.98;;;;;;;;;;4934299;29;20039;-58
2022/09/20 04:56:21;;;;;;;1.48;0.90;;;;;;;;;;4936147;29;20043;-58
2022/09/20 04:59:23;;;;;;;2.58;1.17;;;;;;;;;;4938198;29;20039;-59
2022/09/20 05:02:07;;;;;;;;;;;;;;;;;;4882439;29;20141;-58
2022/09/20 05:04:55;;;;;;;4.28;1.15;;;;;;;;;;4882182;29;19978;-59
2022/09/20 05:07:39;;;;;;;4.00;0.93;;;;;;;;;;4880408;29;20107;-59
2022/09/20 05:10:13;;;;;;;1.58;1.05;;;;;;;;;;4862196;29;20144;-58
2022/09/20 05:13:01;;;;;;;2.15;0.80;;;;;;;;;;4864686;29;20177;-58
2022/09/20 05:15:35;;;;;;;1.65;0.85;;;;;;;;;;4867617;29;20041;-58
2022/09/20 05:18:22;;;;;;;3.95;1.15;;;;;;;;;;4867778;29;20037;-58
2022/09/20 05:21:09;;;;;;;5.10;1.40;;;;;;;;;;4867855;29;20037;-58
2022/09/20 05:24:01;;;;;;;3.20;1.02;;;;;;;;;;4869084;29;20081;-58
2022/09/20 05:27:11;;;;;;;4.50;0.80;;;;;;;;;;4862974;29;20045;-58
2022/09/20 05:30:14;;;;;;;1.85;1.00;;;;;;;;;;4885681;29;20045;-56
2022/09/20 05:32:45;;;;;;;;;;;;;;;;;;4885345;29;20092;-57
2022/09/20 05:35:57;;;;;;;4.88;1.33;;;;;;;;;;4887165;29;19986;-58
2022/09/20 05:38:49;;;;;;;2.63;1.37;;;;;;;;;;4916975;28;20050;-58
2022/09/20 05:41:46;;;;;;;4.75;1.10;;;;;;;;;;4965808;28;20291;-58
2022/09/20 05:44:46;;;;;;;3.17;0.93;;;;;;;;;;4963772;28;20046;-58
2022/09/20 05:47:34;;;;;;;8.05;1.30;;;;;;;;;;4963688;28;20035;-56
2022/09/20 05:50:28;;;;;;;4.95;1.20;;;;;;;;;;4963866;28;20041;-56
2022/09/20 05:53:16;;;;;;;2.95;1.30;;;;;;;;;;4965051;28;20031;-58
2022/09/20 05:55:45;;;;;;;6.93;1.58;;;;;;;;;;4966904;28;20035;-59
2022/09/20 05:58:35;;;;;;;2.67;1.42;;;;;;;;;;4967335;28;20015;-58
2022/09/20 06:01:14;;;;;;;3.47;1.27;;;;;;;;;;4966928;28;20054;-59
2022/09/20 06:03:55;;;;;;;9.07;1.35;;;;;;;;;;4966294;28;20065;-59
2022/09/20 06:06:36;;;;;;;2.33;1.02;;;;;;;;;;4965604;28;20023;-59
2022/09/20 06:09:07;;;;;;;3.00;1.10;;;;;;;;;;4967575;28;20486;-59
2022/09/20 06:11:51;;;;;;;1.93;1.10;;;;;;;;;;4967310;28;20043;-59
2022/09/20 06:15:03;;;;;;;2.90;1.20;;;;;;;;;;4965890;28;20268;-58
2022/09/20 06:17:58;;;;;;;5.68;1.02;;;;;;;;;;4945234;28;20565;-58
2022/09/20 06:20:34;;;;;;;1.25;1.00;;;;;;;;;;4942237;28;20051;-58
2022/09/20 06:23:03;;;;;;;4.28;1.10;;;;;;;;;;4942628;28;20196;-58
2022/09/20 06:25:52;;;;;;;2.95;1.25;;;;;;;;;;4945599;28;20066;-58
2022/09/20 06:28:40;;;;;;;6.40;1.90;;;;;;;;;;4946399;28;20070;-59
2022/09/20 06:31:07;;;;;;;2.08;1.08;;;;;;;;;;4940315;29;20090;-58
2022/09/20 06:33:42;;;;;;;5.28;1.45;;;;;;;;;;4946172;29;20043;-58
2022/09/20 06:42:15;;;;;;;1.40;0.90;;;;;;;;;;4946417;28;20071;-58
2022/09/20 06:44:42;;;;;;;5.25;1.00;;;;;;;;;;4948104;28;20059;-57
2022/09/20 06:47:11;;;;;;;4.05;0.80;;;;;;;;;;4939950;28;20039;-58
2022/09/20 06:49:38;;;;;;;8.30;1.05;;;;;;;;;;4943184;28;20027;-58
2022/09/20 06:52:05;;;;;;;3.50;1.20;;;;;;;;;;4944639;28;20031;-59
2022/09/20 06:54:32;;;;;;;2.15;1.20;;;;;;;;;;4958423;28;20069;-58
2022/09/20 06:57:01;;;;;;;2.30;1.13;;;;;;;;;;4966681;28;20122;-57
2022/09/20 06:59:27;;;;;;;4.60;1.00;;;;;;;;;;4966277;28;20045;-58
2022/09/20 07:01:53;;;;;;;4.00;1.02;;;;;;;;;;4968430;28;20034;-59
2022/09/20 07:04:18;;;;;;;3.33;0.85;;;;;;;;;;4966754;28;20041;-58
2022/09/20 07:06:44;;;;;;;6.43;1.15;;;;;;;;;;4967178;28;20050;-58
2022/09/20 07:09:10;;;;;;;1.45;1.08;;;;;;;;;;4967066;28;20118;-58
2022/09/20 07:11:36;;;;;;;5.40;1.55;;;;;;;;;;4966332;28;20482;-58
2022/09/20 07:14:02;;;;;;;1.55;1.20;;;;;;;;;;4965574;28;20028;-58
2022/09/20 07:16:27;;;;;;;4.22;1.00;;;;;;;;;;4967645;28;20034;-58
2022/09/20 07:18:53;;;;;;;15.82;0.95;;;;;;;;;;4966729;28;20023;-58
2022/09/20 07:21:20;;;;;;;6.68;1.23;;;;;;;;;;4968566;28;20027;-58
2022/09/20 07:23:47;;;;;;;4.90;1.20;;;;;;;;;;4967800;28;20383;-59
2022/09/20 07:26:25;;;;;;;5.82;1.45;;;;;;;;;;4967544;28;20146;-58
2022/09/20 07:28:51;;;;;;;6.47;1.30;;;;;;;;;;4963398;28;20031;-58
2022/09/20 07:31:18;;;;;;;2.75;0.93;;;;;;;;;;4970527;28;20073;-58
2022/09/20 07:33:44;;;;;;;3.63;1.10;;;;;;;;;;4968163;28;20043;-58
2022/09/20 07:36:11;;;;;;;1.92;0.93;;;;;;;;;;4969804;28;20038;-59
2022/09/20 07:38:37;;;;;;;3.90;1.00;;;;;;;;;;4971274;28;20030;-59
2022/09/20 07:41:04;;;;;;;1.83;1.10;;;;;;;;;;4968567;28;20027;-59
2022/09/20 07:43:30;;;;;;;4.30;1.10;;;;;;;;;;4968807;28;20027;-58
2022/09/20 07:45:58;;;;;;;2.50;1.02;;;;;;;;;;4968123;28;20043;-58
2022/09/20 07:48:25;;;;;;;1.15;0.95;;;;;;;;;;4969760;28;20058;-58
2022/09/20 07:50:53;;;;;;;1.67;1.33;;;;;;;;;;4970090;28;20431;-58
2022/09/20 07:53:18;;;;;;;2.55;1.38;;;;;;;;;;4970903;28;20125;-59
2022/09/20 07:56:14;;;;;;;1.70;1.02;;;;;;;;;;4969871;28;20105;-59
2022/09/20 07:58:40;;;;;;;4.00;1.20;;;;;;;;;;4970501;28;20039;-59
2022/09/20 08:01:08;;;;;;;2.72;0.95;;;;;;;;;;4967179;28;20049;-59
2022/09/20 08:03:35;;;;;;;5.53;1.25;;;;;;;;;;4966057;28;20038;-59
2022/09/20 08:06:06;;;;;;;1.88;1.10;;;;;;;;;;4971401;28;20049;-59
2022/09/20 08:08:34;;;;;;;2.05;1.27;;;;;;;;;;4971590;28;20103;-59
2022/09/20 08:11:04;;;;;;;1.50;1.30;;;;;;;;;;4968986;28;20058;-59
2022/09/20 08:13:30;;;;;;;5.50;1.23;;;;;;;;;;4969778;28;20490;-59
2022/09/20 08:16:03;;;;;;;2.40;1.17;;;;;;;;;;4968709;28;20034;-59
2022/09/20 08:18:30;;;;;;;2.22;1.10;;;;;;;;;;4966657;28;20043;-59
2022/09/20 08:20:56;;;;;;;8.85;1.10;;;;;;;;;;4964304;28;20042;-59
2022/09/20 08:23:22;;;;;;;6.38;1.13;;;;;;;;;;4968129;28;20018;-58
2022/09/20 08:25:48;;;;;;;5.22;1.23;;;;;;;;;;4962855;28;20495;-59
2022/09/20 08:28:14;;;;;;;2.22;1.17;;;;;;;;;;4960493;28;20038;-59
2022/09/20 08:30:40;;;;;;;1.20;0.82;;;;;;;;;;4963791;28;20026;-59
2022/09/20 08:33:05;;;;;;;2.53;1.20;;;;;;;;;;4962377;28;20038;-59
2022/09/20 08:35:34;;;;;;;4.03;1.20;;;;;;;;;;4968307;28;20034;-59
2022/09/20 08:38:00;;;;;;;2.55;1.17;;;;;;;;;;4968214;28;20038;-59
2022/09/20 08:40:29;;;;;;;3.42;1.20;;;;;;;;;;4967937;28;20403;-59
2022/09/20 08:42:56;;;;;;;5.75;1.25;;;;;;;;;;4968891;28;20061;-59
2022/09/20 08:45:25;;;;;;;4.60;1.38;;;;;;;;;;4968834;28;20094;-58
2022/09/20 08:47:55;;;;;;;7.68;1.70;;;;;;;;;;4969254;28;20030;-59
2022/09/20 08:50:21;;;;;;;3.67;1.30;;;;;;;;;;4967999;28;20061;-59
2022/09/20 08:52:51;;;;;;;5.28;1.10;;;;;;;;;;4969469;28;20476;-59
2022/09/20 08:55:20;;;;;;;4.40;1.20;;;;;;;;;;4968319;28;20023;-59
2022/09/20 08:57:49;;;;;;;5.15;1.17;;;;;;;;;;4968514;28;20042;-59
2022/09/20 09:00:20;;;;;;;3.35;1.50;;;;;;;;;;4969594;28;20074;-59
2022/09/20 09:02:50;;;;;;;4.10;1.10;;;;;;;;;;4967677;28;20054;-59
2022/09/20 09:05:32;;;;;;;1.17;1.00;;;;;;;;;;4964820;28;20115;-59
2022/09/20 09:08:20;;;;;;;3.45;1.10;;;;;;;;;;4968055;28;20133;-59
2022/09/20 09:10:53;;;;;;;3.35;1.42;;;;;;;;;;4966697;28;20034;-59
2022/09/20 09:13:38;;;;;;;6.13;1.52;;;;;;;;;;4968914;28;20098;-59
2022/09/20 09:16:14;;;;;;;6.05;1.40;;;;;;;;;;4965635;28;20054;-59
2022/09/20 09:18:42;;;;;;;1.75;1.15;;;;;;;;;;4967308;28;20038;-59
2022/09/20 09:21:15;;;;;;;2.40;1.10;;;;;;;;;;4968936;28;20050;-59
2022/09/20 09:24:03;;;;;;;2.70;1.10;;;;;;;;;;4969038;28;20398;-59
2022/09/20 09:26:35;;;;;;;4.10;1.15;;;;;;;;;;4968629;28;20121;-59
2022/09/20 09:29:20;;;;;;;4.55;1.17;;;;;;;;;;4968725;28;20041;-59
2022/09/20 09:31:49;;;;;;;8.23;1.20;;;;;;;;;;4967288;28;20034;-59
2022/09/20 09:34:41;;;;;;;1.35;1.13;;;;;;;;;;4968410;28;20527;-59
2022/09/20 09:37:22;;;;;;;3.20;1.40;;;;;;;;;;4962422;28;20093;-59
2022/09/20 09:40:11;;;;;;;1.63;1.13;;;;;;;;;;4964395;28;20499;-59
2022/09/20 09:42:49;;;;;;;4.40;1.30;;;;;;;;;;4966894;28;20351;-59
2022/09/20 09:45:30;;;;;;;6.50;1.70;;;;;;;;;;4968685;28;20033;-59
2022/09/20 09:47:58;;;;;;;4.45;1.40;;;;;;;;;;4967131;28;20105;-59
2022/09/20 09:50:33;;;;;;;4.03;1.05;;;;;;;;;;4966547;28;20034;-59
2022/09/20 09:53:08;;;;;;;3.15;1.30;;;;;;;;;;4967727;28;20038;-59
2022/09/20 09:55:56;;;;;;;4.53;1.42;;;;;;;;;;4967230;28;20030;-59
2022/09/20 09:58:39;;;;;;;2.60;1.25;;;;;;;;;;4966973;28;20043;-59
2022/09/20 10:01:10;;;;;;;1.95;1.30;;;;;;;;;;4966298;28;20031;-59
2022/09/20 10:04:17;;;;;;;1.43;1.33;;;;;;;;;;4965106;28;20030;-59
2022/09/20 10:06:54;;;;;;;4.55;1.60;;;;;;;;;;4969971;28;20355;-58
2022/09/20 10:09:22;;;;;;;4.50;1.20;;;;;;;;;;4967576;28;20026;-59
2022/09/20 10:12:01;;;;;;;6.25;1.45;;;;;;;;;;4963249;28;20027;-59
2022/09/20 10:14:55;;;;;;;2.58;1.30;;;;;;;;;;4965826;28;20027;-59
2022/09/20 10:17:30;;;;;;;6.25;1.52;;;;;;;;;;4965524;28;20031;-57
2022/09/20 10:20:14;;;;;;;2.85;1.25;;;;;;;;;;4968070;28;20435;-59
2022/09/20 10:22:45;;;;;;;2.90;1.20;;;;;;;;;;4969586;28;20031;-59
2022/09/20 10:25:42;;;;;;;5.17;1.50;;;;;;;;;;4950268;28;20037;-59
2022/09/20 10:28:07;;;;;;;5.93;1.38;;;;;;;;;;4967641;28;20034;-58
2022/09/20 10:31:00;;;;;;;5.22;1.30;;;;;;;;;;4966560;28;20027;-59
2022/09/20 10:33:33;;;;;;;3.67;1.10;;;;;;;;;;4963205;28;20062;-59
2022/09/20 10:36:43;;;;;;;5.00;1.40;;;;;;;;;;4966983;28;20038;-59
2022/09/20 10:39:35;;;;;;;5.68;1.30;;;;;;;;;;4963373;28;20097;-59
2022/09/20 10:45:19;;;;;;;7.60;1.83;;;;;;;;;;4963390;28;20094;-58
2022/09/20 10:47:48;;;;;;;4.88;1.27;;;;;;;;;;4962806;28;20047;-59
2022/09/20 10:50:42;;;;;;;2.42;1.55;;;;;;;;;;4963987;28;20519;-59
2022/09/20 10:53:40;;;;;;;2.53;1.30;;;;;;;;;;4963444;28;20078;-59
2022/09/20 10:56:06;;;;;;;1.88;1.27;;;;;;;;;;4963562;28;20034;-59
2022/09/20 10:58:58;;;;;;;1.67;1.30;;;;;;;;;;4965004;28;20026;-59
2022/09/20 11:01:37;;;;;;;9.38;1.40;;;;;;;;;;4899960;29;20044;-58
2022/09/20 11:04:27;;;;;;;4.40;1.42;;;;;;;;;;4895485;29;20064;-58
2022/09/20 11:07:28;;;;;;;1.40;1.30;;;;;;;;;;4902553;29;20071;-59
2022/09/20 11:09:58;;;;;;;4.32;1.25;;;;;;;;;;4872013;29;20045;-59
2022/09/20 11:12:42;;;;;;;1.55;1.33;;;;;;;;;;4873212;29;20097;-59
2022/09/20 11:15:39;;;;;;;2.00;1.10;;;;;;;;;;4870874;29;20097;-59
2022/09/20 11:18:22;;;;;;;7.22;1.33;;;;;;;;;;4872182;29;20132;-59
2022/09/20 11:21:01;;;;;;;4.88;1.52;;;;;;;;;;4869918;29;20033;-58
2022/09/20 11:23:48;;;;;;;2.13;1.27;;;;;;;;;;4871895;29;20502;-59
2022/09/20 11:26:21;;;;;;;5.25;1.38;;;;;;;;;;4817493;29;20167;-59
2022/09/20 11:28:53;;;;;;;10.80;1.58;;;;;;;;;;4818867;29;20137;-59
2022/09/20 11:31:40;;;;;;;4.63;1.13;;;;;;;;;;4817916;29;20046;-59
2022/09/20 11:34:27;;;;;;;2.40;1.45;;;;;;;;;;4817714;29;20049;-58
2022/09/20 11:37:02;;;;;;;2.92;1.38;;;;;;;;;;4817464;29;20065;-59
2022/09/20 11:39:47;;;;;;;6.22;1.45;;;;;;;;;;4833661;29;20121;-58
2022/09/20 11:42:33;;;;;;;2.75;1.25;;;;;;;;;;4835279;29;20145;-59
2022/09/20 11:44:58;;;;;;;3.92;1.38;;;;;;;;;;4852833;29;20049;-59
2022/09/20 11:47:40;;;;;;;2.55;1.73;;;;;;;;;;4855589;29;20029;-58
2022/09/20 11:50:34;;;;;;;6.55;1.50;;;;;;;;;;4853672;29;20049;-59
2022/09/20 11:53:23;;;;;;;4.68;1.35;;;;;;;;;;4853521;29;20075;-59
2022/09/20 11:56:10;;;;;;;7.03;1.30;;;;;;;;;;4854945;29;20073;-59
2022/09/20 11:58:54;;;;;;;4.40;1.67;;;;;;;;;;4853235;29;20045;-59
2022/09/20 12:01:31;;;;;;;6.95;1.65;;;;;;;;;;4854611;29;20572;-59
2022/09/20 12:04:01;;;;;;;8.60;1.20;;;;;;;;;;4940410;28;20042;-59
2022/09/20 12:06:34;;;;;;;14.25;1.50;;;;;;;;;;4968682;28;20042;-59
2022/09/20 12:09:03;;;;;;;2.67;1.42;;;;;;;;;;4969837;28;20091;-59
2022/09/20 12:11:34;;;;;;;7.20;1.33;;;;;;;;;;4968469;28;20437;-58
2022/09/20 12:14:03;;;;;;;2.10;1.30;;;;;;;;;;4967436;28;20431;-58
2022/09/20 12:16:36;;;;;;;6.05;1.40;;;;;;;;;;4968716;28;20034;-59
2022/09/20 12:19:32;;;;;;;7.07;1.70;;;;;;;;;;4967476;28;20113;-59
2022/09/20 12:21:58;;;;;;;3.85;1.70;;;;;;;;;;4968973;28;20050;-59
2022/09/20 12:24:30;;;;;;;2.75;1.70;;;;;;;;;;4970611;28;20185;-58
2022/09/20 12:26:56;;;;;;;;;;;;;;;;;;4971820;28;20035;-58
2022/09/20 12:29:22;;;;;;;2.53;1.40;;;;;;;;;;4965819;28;19918;-58
2022/09/20 12:31:53;;;;;;;6.25;1.80;;;;;;;;;;4968435;28;20564;-59
2022/09/20 12:34:18;;;;;;;4.65;1.65;;;;;;;;;;4968347;28;20519;-59
2022/09/20 12:37:09;;;;;;;7.03;1.92;;;;;;;;;;4970063;28;20045;-58
2022/09/20 12:39:38;;;;;;;1.42;1.30;;;;;;;;;;4967266;28;20031;-58
2022/09/20 12:42:10;;;;;;;1.65;1.23;;;;;;;;;;4966827;28;20112;-58
2022/09/20 12:44:39;;;;;;;;;;;;;;;;;;4969407;28;20114;-59
2022/09/20 12:47:16;;;;;;;5.45;1.42;;;;;;;;;;4968854;28;20016;-59
2022/09/20 12:52:50;;;;;;;2.53;1.52;;;;;;;;;;4969149;28;20117;-59
2022/09/20 12:55:42;;;;;;;9.85;1.50;;;;;;;;;;4967539;28;20043;-59
2022/09/20 13:00:49;;;;;;;4.32;1.70;;;;;;;;;;4968554;28;20039;-59
2022/09/20 13:03:17;;;;;;;7.28;2.28;;;;;;;;;;4966273;28;20034;-59
2022/09/20 13:05:45;;;;;;;6.18;1.80;;;;;;;;;;4965688;28;20039;-59
2022/09/20 13:08:11;;;;;;;3.65;1.63;;;;;;;;;;4966379;28;20781;-59
2022/09/20 13:10:42;;;;;;;5.30;1.65;;;;;;;;;;4969687;28;20049;-59
2022/09/20 13:13:37;;;;;;;5.88;1.80;;;;;;;;;;4967986;28;20105;-59
2022/09/20 13:16:05;;;;;;;4.78;1.55;;;;;;;;;;4968868;28;20065;-58
2022/09/20 13:18:33;;;;;;;5.97;1.65;;;;;;;;;;4967866;28;20511;-59
2022/09/20 13:21:04;;;;;;;2.80;1.58;;;;;;;;;;4968922;28;20066;-59
2022/09/20 13:23:33;;;;;;;2.17;1.20;;;;;;;;;;4967398;28;20084;-59
2022/09/20 13:26:01;;;;;;;2.05;1.50;;;;;;;;;;4968870;28;20062;-59
2022/09/20 13:28:53;;;;;;;4.18;1.10;;;;;;;;;;4968362;28;20039;-59
2022/09/20 13:31:32;;;;;;;3.22;1.58;;;;;;;;;;4960861;28;20043;-59
2022/09/20 13:34:14;;;;;;;4.18;1.50;;;;;;;;;;4967556;28;20097;-59
2022/09/20 13:36:40;;;;;;;5.20;1.92;;;;;;;;;;4967543;28;20939;-59
2022/09/20 13:39:07;;;;;;;5.60;1.40;;;;;;;;;;4968446;28;20097;-59
2022/09/20 13:41:34;;;;;;;3.75;1.60;;;;;;;;;;4966241;28;20474;-59
2022/09/20 13:44:01;;;;;;;6.20;1.50;;;;;;;;;;4969670;28;20498;-59
2022/09/20 13:46:32;;;;;;;4.10;1.80;;;;;;;;;;4968189;28;20495;-59
2022/09/20 13:49:14;;;;;;;1.83;1.35;;;;;;;;;;4969452;28;20105;-59
2022/09/20 13:51:39;;;;;;;6.82;1.50;;;;;;;;;;4969037;28;20046;-59
2022/09/20 13:54:20;;;;;;;3.72;1.50;;;;;;;;;;4965549;28;20043;-59
2022/09/20 13:56:48;;;;;;;3.55;1.38;;;;;;;;;;4968660;28;20034;-58
2022/09/20 13:59:18;;;;;;;3.38;1.40;;;;;;;;;;4968581;28;20449;-59
2022/09/20 14:01:51;;;;;;;2.60;1.38;;;;;;;;;;4968621;28;20568;-59
2022/09/20 14:04:23;;;;;;;9.57;1.58;;;;;;;;;;4966267;28;20035;-59
2022/09/20 14:06:51;;;;;;;4.40;1.27;;;;;;;;;;4965224;28;20041;-59
2022/09/20 14:09:31;;;;;;;4.10;1.42;;;;;;;;;;4966001;28;20046;-59
2022/09/20 14:11:57;;;;;;;3.40;1.60;;;;;;;;;;4965334;28;20054;-59
2022/09/20 14:14:24;;;;;;;10.52;2.05;;;;;;;;;;4968378;28;20089;-59
2022/09/20 14:16:52;;;;;;;1.90;1.27;;;;;;;;;;4948830;28;20031;-58
2022/09/20 14:19:22;;;;;;;4.25;1.95;;;;;;;;;;4967807;28;20034;-59
2022/09/20 14:21:48;;;;;;;7.60;1.50;;;;;;;;;;4966496;28;20034;-59
2022/09/20 14:24:13;;;;;;;4.00;1.60;;;;;;;;;;4968795;28;20105;-59
2022/09/20 14:26:41;;;;;;;2.45;1.42;;;;;;;;;;4967432;28;20633;-59
2022/09/20 14:29:38;;;;;;;1.48;1.38;;;;;;;;;;4968041;28;20037;-59
2022/09/20 14:32:06;;;;;;;2.83;1.27;;;;;;;;;;4965463;28;20038;-58
2022/09/20 14:34:39;;;;;;;4.65;1.50;;;;;;;;;;4950415;28;20055;-59
2022/09/20 14:37:16;;;;;;;3.13;1.33;;;;;;;;;;4967295;28;20042;-59
2022/09/20 14:39:52;;;;;;;4.32;1.45;;;;;;;;;;4969846;28;20041;-59
2022/09/20 14:42:44;;;;;;;2.15;1.25;;;;;;;;;;4970554;28;20047;-59
2022/09/20 14:45:22;;;;;;;4.07;1.55;;;;;;;;;;4971189;28;20058;-59
2022/09/20 14:48:02;;;;;;;9.50;1.80;;;;;;;;;;4969195;28;20047;-59
2022/09/20 14:50:33;;;;;;;2.45;1.48;;;;;;;;;;4967894;28;20035;-59
2022/09/20 14:53:14;;;;;;;3.00;1.50;;;;;;;;;;4970887;28;20038;-59
2022/09/20 14:56:05;;;;;;;1.85;1.23;;;;;;;;;;4971331;28;20050;-59
2022/09/20 14:58:32;;;;;;;3.67;1.20;;;;;;;;;;4969137;28;20046;-59
2022/09/20 15:01:04;;;;;;;3.38;1.38;;;;;;;;;;4967656;28;20408;-59
2022/09/20 15:03:38;;;;;;;3.58;1.42;;;;;;;;;;4969806;28;20031;-59
2022/09/20 15:06:05;;;;;;;4.28;1.60;;;;;;;;;;4970253;28;20543;-59
2022/09/20 15:08:33;;;;;;;2.00;1.20;;;;;;;;;;4971315;28;20532;-59
2022/09/20 15:10:58;;;;;;;3.65;1.55;;;;;;;;;;4970537;28;20172;-59
2022/09/20 15:13:24;;;;;;;1.88;1.30;;;;;;;;;;4971359;28;20114;-59
2022/09/20 15:15:52;;;;;;;7.03;1.52;;;;;;;;;;4966953;28;20042;-59
2022/09/20 15:18:33;;;;;;;3.20;1.38;;;;;;;;;;4969223;28;20595;-59
2022/09/20 15:20:59;;;;;;;4.72;1.40;;;;;;;;;;4967998;28;20069;-59
2022/09/20 15:23:25;;;;;;;7.43;1.20;;;;;;;;;;4971500;28;20045;-58
2022/09/20 15:25:52;;;;;;;3.97;1.60;;;;;;;;;;4970483;28;20043;-59
2022/09/20 15:28:18;;;;;;;5.90;1.25;;;;;;;;;;4971541;28;20911;-59
2022/09/20 15:30:45;;;;;;;4.00;1.83;;;;;;;;;;4970795;28;20129;-58
2022/09/20 15:33:11;;;;;;;3.42;1.48;;;;;;;;;;4969746;28;20498;-59
2022/09/20 15:35:38;;;;;;;9.90;1.17;;;;;;;;;;4970842;28;20035;-59
2022/09/20 15:38:04;;;;;;;4.22;1.45;;;;;;;;;;4968376;28;20037;-58
2022/09/20 15:40:31;;;;;;;2.38;1.30;;;;;;;;;;4967560;28;20034;-58
2022/09/20 15:42:58;;;;;;;4.97;1.40;;;;;;;;;;4966927;28;20475;-59
2022/09/20 15:45:26;;;;;;;3.45;1.40;;;;;;;;;;4970450;28;20039;-58
2022/09/20 15:47:54;;;;;;;2.38;1.60;;;;;;;;;;4968333;28;20121;-59
2022/09/20 15:50:22;;;;;;;2.28;1.40;;;;;;;;;;4968801;28;20030;-58
2022/09/20 15:52:47;;;;;;;2.95;1.27;;;;;;;;;;4971176;28;20043;-58
2022/09/20 15:55:13;;;;;;;4.32;1.40;;;;;;;;;;4969668;28;20031;-59
2022/09/20 15:57:40;;;;;;;4.22;1.27;;;;;;;;;;4970783;28;21023;-59
2022/09/20 16:00:07;;;;;;;4.00;1.38;;;;;;;;;;4969781;28;20472;-59
2022/09/20 16:02:33;;;;;;;5.45;1.70;;;;;;;;;;4970136;28;20039;-59
2022/09/20 16:04:58;;;;;;;6.85;1.23;;;;;;;;;;4970022;28;20058;-59
2022/09/20 16:07:27;;;;;;;7.15;1.20;;;;;;;;;;4968395;28;20507;-58